INFORMACIÓN METAR y TAF
METAR FOR LEMO
ADDS - METARS form results

(1439 UTC 28 November 2022)
Data provider http://aviationweather.gov/metar/data/
 
METAR text: LEMO 281430Z VRB06KT CAVOK 18/00 Q1023 NOSIG
Conditions at: LEMO (MORON (SP-USAFB), ES) observed 1430 UTC 28 November 2022
Temperature: 18.0°C (64°F)
Dewpoint: 0.0°C (32°F) [RH = 30%]
Pressure (altimeter): 30.21 inches Hg (1023.0 mb)
Winds: variable direction winds at 7 MPH (6 knots; 3.1 m/s)
Visibility: 6 or more miles (10+ km)
Ceiling: ceiling and visibility are OK
Clouds: unknown
Weather: no significant weather observed at this time

METAR text: LEMO 281400Z 03006KT 340V080 CAVOK 17/02 Q1023 NOSIG
Conditions at: LEMO (MORON (SP-USAFB), ES) observed 1400 UTC 28 November 2022
Temperature: 17.0°C (63°F)
Dewpoint: 2.0°C (36°F) [RH = 36%]
Pressure (altimeter): 30.21 inches Hg (1023.0 mb)
Winds: from the NNE (30 degrees) at 7 MPH (6 knots; 3.1 m/s)
Visibility: 6 or more miles (10+ km)
Ceiling: ceiling and visibility are OK
Clouds: unknown
Weather: no significant weather observed at this time

Forecast for: LEMO (MORON (SP-USAFB), ES)
Text: TAF LEMO 281400Z 2815/2915 01010KT CAVOK TX20/2815Z TN09/2907Z
Forecast period: 1500 to 2100 UTC 28 November 2022
Forecast type: FROM: standard forecast or significant change
Winds: from the N (10 degrees) at 12 MPH (10 knots; 5.1 m/s)
Visibility: 6 or more miles (10+ km)
Ceiling: unknown
Clouds: missing
Weather: no significant weather forecast for this period
Text: BECMG 2821/2823 07005KT
Forecast period: 2100 UTC 28 November 2022 to 1500 UTC 29 November 2022
Forecast type: BECOMING: Conditions expected to become as follows by 2300 UTC 28 November 2022
Winds: from the ENE (70 degrees) at 6 MPH (5 knots; 2.6 m/s)
Visibility: 6 or more miles (10+ km)
Ceiling: unknown
Clouds: missing
Weather: no significant weather forecast for this period

 MAPA DE AEROPUERTO

 INFORMACIÓN DE PISTA
Pista 02 Longitud 11801 ft Ancho 200 ft
Elevación 285 ft Umbral desplazado 0 ft Rumbo de pista 20
Pista 20 Longitud 11801 ft Ancho 200 ft
Elevación 270 ft Umbral desplazado 0 ft Rumbo de pista 200

 FRECUANCIAS DEL AEROPUERTO
Tipo APP Nombre SEVILLA AP Frecuencia 120 MHZ
Tipo GND Nombre GND Frecuencia 25.89 MHZ
Tipo PMSV Nombre PMSV METRO Frecuencia 28.442 MHZ
Tipo POST Nombre 496 ABS CO Frecuencia 26.472 MHZ
Tipo PTD Nombre PTD Frecuencia 27.537 MHZ
Tipo TWR Nombre TWR Frecuencia 122.1 MHZ

 RADIO AYUDAS DEL AEROPUERTO
Tipo NDB Nombre Moron Frecuencia 428 KHZ
Tipo TACAN Nombre Moron Frecuencia 115300 KHZ
Tipo VOR-DME Nombre Moron Frecuencia 115500 KHZ




Powered by Virtual Airlines Manager